createdAt,value
2023-04-28T00:01:29.870Z,44.64
2023-04-28T00:03:57.986Z,44.47
2023-04-28T00:06:24.635Z,44.85
2023-04-28T00:08:50.979Z,44.43
2023-04-28T00:11:17.349Z,44.80
2023-04-28T00:13:43.694Z,44.30
2023-04-28T00:16:10.088Z,44.29
2023-04-28T00:18:36.541Z,44.83
2023-04-28T00:21:02.913Z,45.64
2023-04-28T00:23:29.318Z,46.01
2023-04-28T00:25:57.358Z,45.15
2023-04-28T00:28:33.427Z,46.00
2023-04-28T00:31:01.253Z,45.25
2023-04-28T00:33:27.631Z,45.22
2023-04-28T00:36:01.107Z,46.34
2023-04-28T00:38:27.667Z,45.15
2023-04-28T00:40:54.063Z,45.62
2023-04-28T00:43:20.494Z,45.69
2023-04-28T00:45:46.904Z,46.57
2023-04-28T00:48:14.061Z,45.57
2023-04-28T00:50:40.541Z,47.26
2023-04-28T00:53:07.012Z,46.99
2023-04-28T00:55:35.336Z,45.74
2023-04-28T00:58:02.560Z,45.65
2023-04-28T01:00:28.946Z,45.99
2023-04-28T01:02:56.981Z,46.86
2023-04-28T01:05:26.909Z,45.59
2023-04-28T01:07:53.284Z,45.90
2023-04-28T01:10:19.888Z,46.97
2023-04-28T01:12:46.265Z,46.54
2023-04-28T01:15:19.904Z,46.23
2023-04-28T01:17:47.611Z,46.67
2023-04-28T01:20:14.780Z,46.48
2023-04-28T01:22:41.477Z,45.96
2023-04-28T01:25:08.184Z,46.54
2023-04-28T01:27:34.571Z,45.98
2023-04-28T01:30:00.919Z,46.99
2023-04-28T01:32:27.315Z,46.20
2023-04-28T01:34:53.701Z,46.19
2023-04-28T01:37:20.169Z,46.33
2023-04-28T01:39:46.533Z,46.17
2023-04-28T01:42:12.902Z,46.74
2023-04-28T01:44:39.466Z,45.64
2023-04-28T01:50:52.616Z,45.99
2023-04-28T01:53:20.636Z,45.75
2023-04-28T01:55:47.931Z,46.09
2023-04-28T01:58:14.539Z,46.04
2023-04-28T02:00:40.902Z,45.97
2023-04-28T02:03:07.318Z,46.10
2023-04-28T02:05:33.777Z,46.38
2023-04-28T02:08:00.155Z,46.71
2023-04-28T02:10:26.522Z,46.78
2023-04-28T02:12:52.904Z,47.24
2023-04-28T02:15:19.514Z,47.31
2023-04-28T02:17:46.008Z,48.38
2023-04-28T02:20:14.257Z,47.80
2023-04-28T02:22:41.290Z,47.49
2023-04-28T02:25:08.488Z,47.60
2023-04-28T02:27:36.716Z,47.46
2023-04-28T02:30:05.357Z,47.10
2023-04-28T02:32:32.390Z,47.12
2023-04-28T02:34:58.962Z,47.56
2023-04-28T02:37:25.411Z,47.53
2023-04-28T02:39:51.764Z,48.08
2023-04-28T02:42:18.128Z,48.18
2023-04-28T02:44:44.464Z,49.08
2023-04-28T02:47:11.004Z,47.83
2023-04-28T02:49:37.476Z,49.09
2023-04-28T02:52:03.927Z,49.15
2023-04-28T02:54:30.743Z,50.17
2023-04-28T02:56:58.233Z,49.36
2023-04-28T02:59:25.375Z,49.28
2023-04-28T03:01:54.356Z,49.53
2023-04-28T03:04:21.052Z,50.50
2023-04-28T03:06:47.904Z,50.83
2023-04-28T03:09:14.687Z,50.84
2023-04-28T03:11:41.347Z,49.80
2023-04-28T03:14:07.713Z,51.26
2023-04-28T03:16:34.111Z,49.68
2023-04-28T03:19:00.744Z,50.45
2023-04-28T03:21:27.795Z,50.69
2023-04-28T03:23:54.242Z,51.53
2023-04-28T03:26:20.893Z,52.20
2023-04-28T03:28:47.452Z,51.24
2023-04-28T03:31:13.824Z,51.73
2023-04-28T03:33:45.488Z,51.98
2023-04-28T03:36:11.879Z,51.78
2023-04-28T03:38:38.744Z,51.83
2023-04-28T03:41:05.109Z,52.03
2023-04-28T03:43:33.092Z,51.58
2023-04-28T03:45:59.498Z,51.14
2023-04-28T03:48:26.019Z,50.37
2023-04-28T03:50:52.483Z,50.15
2023-04-28T03:53:18.850Z,50.95
2023-04-28T03:55:45.534Z,51.49
2023-04-28T03:58:11.904Z,51.79
2023-04-28T04:00:38.325Z,50.08
2023-04-28T04:03:04.774Z,51.84
2023-04-28T04:05:31.341Z,50.93
2023-04-28T04:07:58.163Z,50.69
2023-04-28T04:10:24.519Z,51.29
2023-04-28T04:12:51.028Z,51.46
2023-04-28T04:15:17.404Z,50.81
2023-04-28T04:17:44.129Z,51.24
2023-04-28T04:20:10.831Z,50.87
2023-04-28T04:22:37.209Z,51.11
2023-04-28T04:25:03.729Z,51.08
2023-04-28T04:27:30.126Z,50.33
2023-04-28T04:29:56.479Z,49.78
2023-04-28T04:32:22.917Z,50.47
2023-04-28T04:34:49.297Z,50.89
2023-04-28T04:37:15.676Z,50.09
2023-04-28T04:39:42.026Z,50.46
2023-04-28T04:42:23.433Z,49.96
2023-04-28T04:44:51.012Z,50.42
2023-04-28T04:47:17.365Z,50.41
2023-04-28T04:49:44.299Z,51.31
2023-04-28T04:52:10.674Z,50.95
2023-04-28T04:54:37.034Z,50.36
2023-04-28T04:57:03.487Z,51.46
2023-04-28T04:59:29.983Z,50.79
2023-04-28T05:01:56.737Z,50.22
2023-04-28T05:04:23.488Z,50.59
2023-04-28T05:06:50.006Z,50.69
2023-04-28T05:09:16.352Z,50.08
2023-04-28T05:11:42.714Z,50.24
2023-04-28T05:14:09.088Z,50.58
2023-04-28T05:16:36.017Z,49.56
2023-04-28T05:19:02.436Z,49.26
2023-04-28T05:21:28.828Z,49.64
2023-04-28T05:23:55.938Z,49.35
2023-04-28T05:26:22.629Z,49.34
2023-04-28T05:28:49.206Z,49.03
2023-04-28T05:31:16.516Z,49.14
2023-04-28T05:33:42.914Z,48.83
2023-04-28T05:36:09.506Z,48.91
2023-04-28T05:38:36.053Z,49.06
2023-04-28T05:41:02.582Z,48.05
2023-04-28T05:43:29.122Z,49.21
2023-04-28T05:45:55.552Z,48.72
2023-04-28T05:48:21.943Z,48.06
2023-04-28T05:50:48.484Z,48.10
2023-04-28T05:53:14.852Z,48.31
2023-04-28T05:55:41.258Z,47.75
2023-04-28T05:58:08.081Z,47.07
2023-04-28T06:00:34.553Z,46.96
2023-04-28T06:03:01.219Z,47.02
2023-04-28T06:05:28.306Z,46.72
2023-04-28T06:07:56.115Z,46.58
2023-04-28T06:10:23.502Z,46.90
2023-04-28T06:12:49.872Z,45.92
2023-04-28T06:15:16.426Z,46.07
2023-04-28T06:17:42.847Z,46.16
2023-04-28T06:20:11.150Z,45.74
2023-04-28T06:22:37.622Z,45.52
2023-04-28T06:25:04.266Z,45.38
2023-04-28T06:27:32.795Z,44.93
2023-04-28T06:29:59.624Z,44.84
2023-04-28T06:32:26.385Z,44.98
2023-04-28T06:34:52.790Z,44.99
2023-04-28T06:37:19.162Z,44.26
2023-04-28T06:39:45.529Z,44.27
2023-04-28T06:42:11.884Z,44.30
2023-04-28T06:44:38.250Z,44.36
2023-04-28T06:47:04.766Z,44.13
2023-04-28T06:49:31.244Z,44.12
2023-04-28T06:51:57.650Z,43.19
2023-04-28T06:54:24.016Z,43.46
2023-04-28T06:56:50.391Z,43.77
2023-04-28T06:59:16.809Z,43.27
2023-04-28T07:01:43.326Z,43.00
2023-04-28T07:04:10.029Z,42.78
2023-04-28T07:06:37.031Z,42.25
2023-04-28T07:09:04.531Z,42.49
2023-04-28T07:11:33.364Z,42.72
2023-04-28T07:13:59.807Z,42.45
2023-04-28T07:16:26.696Z,41.93
2023-04-28T07:18:53.193Z,41.99
2023-04-28T07:21:22.170Z,41.77
2023-04-28T07:23:49.033Z,40.88
2023-04-28T07:26:16.436Z,40.78
2023-04-28T07:28:44.417Z,39.64
2023-04-28T07:31:11.278Z,39.36
2023-04-28T07:33:37.669Z,39.48
2023-04-28T07:36:04.404Z,39.73
2023-04-28T07:38:30.754Z,39.71
2023-04-28T07:40:57.315Z,39.50
2023-04-28T07:43:23.810Z,39.51
2023-04-28T07:45:50.225Z,39.28
2023-04-28T07:48:16.841Z,39.15
2023-04-28T07:50:43.307Z,39.90
2023-04-28T07:53:09.667Z,39.01
2023-04-28T07:55:36.541Z,39.08
2023-04-28T07:58:03.971Z,38.50
2023-04-28T08:00:30.402Z,39.11
2023-04-28T08:02:57.788Z,38.57
2023-04-28T08:05:24.544Z,38.68
2023-04-28T08:07:51.067Z,38.93
2023-04-28T08:10:17.500Z,38.03
2023-04-28T08:12:45.260Z,38.58
2023-04-28T08:15:12.147Z,38.63
2023-04-28T08:17:38.972Z,38.18
2023-04-28T08:20:06.818Z,39.06
2023-04-28T08:22:33.834Z,37.97
2023-04-28T08:25:00.863Z,37.88
2023-04-28T08:27:27.689Z,37.79
2023-04-28T08:29:54.051Z,38.25
2023-04-28T08:32:20.427Z,37.18
2023-04-28T08:34:46.797Z,37.24
2023-04-28T08:37:13.495Z,36.38
2023-04-28T08:39:39.889Z,36.77
2023-04-28T08:42:06.384Z,36.71
2023-04-28T08:44:38.586Z,36.60
2023-04-28T08:47:12.970Z,36.47
2023-04-28T08:49:40.428Z,36.54
2023-04-28T08:52:11.744Z,35.87
2023-04-28T08:54:40.648Z,36.11
2023-04-28T08:57:09.953Z,36.53
2023-04-28T08:59:41.292Z,35.74
2023-04-28T09:02:08.986Z,35.50
2023-04-28T09:04:35.705Z,35.85
2023-04-28T09:07:02.437Z,35.64
2023-04-28T09:09:32.602Z,35.24
2023-04-28T09:12:02.520Z,35.46
2023-04-28T09:14:31.092Z,35.14
2023-04-28T09:16:57.577Z,34.39
2023-04-28T09:19:30.727Z,34.99
2023-04-28T09:21:57.643Z,34.08
2023-04-28T09:24:40.492Z,34.57
2023-04-28T09:27:10.775Z,34.20
2023-04-28T09:29:38.281Z,34.13
2023-04-28T09:32:13.901Z,33.86
2023-04-28T09:34:48.694Z,33.63
2023-04-28T09:37:20.237Z,33.08
2023-04-28T09:39:51.460Z,33.12
2023-04-28T09:42:38.456Z,32.66
2023-04-28T09:45:13.557Z,33.34
2023-04-28T09:47:41.902Z,32.34
2023-04-28T09:50:12.791Z,32.51
2023-04-28T09:52:41.342Z,32.30
2023-04-28T09:55:12.110Z,32.64
2023-04-28T09:57:39.465Z,31.78
2023-04-28T10:00:09.070Z,32.53
2023-04-28T10:05:11.542Z,32.63
2023-04-28T10:07:39.230Z,32.69
2023-04-28T10:10:07.437Z,31.88
2023-04-28T10:12:34.739Z,32.92
2023-04-28T10:15:01.883Z,31.95
2023-04-28T10:17:29.815Z,32.40
2023-04-28T10:19:57.182Z,31.93
2023-04-28T10:22:35.282Z,32.26
2023-04-28T10:25:11.729Z,32.45
2023-04-28T10:27:43.857Z,31.72
2023-04-28T10:30:25.830Z,31.78
2023-04-28T10:33:06.693Z,31.69
2023-04-28T10:35:36.185Z,31.57
2023-04-28T10:38:10.494Z,31.06
2023-04-28T10:40:38.638Z,31.81
2023-04-28T10:43:41.844Z,30.99
2023-04-28T10:46:09.531Z,30.93
2023-04-28T10:48:48.305Z,30.42
2023-04-28T10:51:14.789Z,30.96
2023-04-28T10:53:51.197Z,31.07
2023-04-28T10:56:27.128Z,31.06
2023-04-28T10:59:00.230Z,30.78
2023-04-28T11:01:34.819Z,30.81
2023-04-28T11:04:15.793Z,31.17
2023-04-28T11:06:43.566Z,30.57
2023-04-28T11:09:13.927Z,30.05
2023-04-28T11:12:00.866Z,30.12
2023-04-28T11:14:35.885Z,30.19
2023-04-28T11:17:08.337Z,29.91
2023-04-28T11:19:37.614Z,29.49
2023-04-28T11:22:11.622Z,29.44
2023-04-28T11:24:38.142Z,29.27
2023-04-28T11:27:05.015Z,29.32
2023-04-28T11:29:36.626Z,29.35
2023-04-28T11:32:08.075Z,29.45
2023-04-28T11:34:35.068Z,29.33
2023-04-28T11:37:01.885Z,29.24
2023-04-28T11:39:33.144Z,29.33
2023-04-28T11:42:02.214Z,29.80
2023-04-28T11:44:30.607Z,29.90
2023-04-28T11:47:03.178Z,30.19
2023-04-28T11:49:31.617Z,29.42
2023-04-28T11:52:00.270Z,29.92
2023-04-28T11:54:28.988Z,29.06
2023-04-28T11:56:57.496Z,28.37
2023-04-28T11:59:29.065Z,28.22
2023-04-28T12:01:59.296Z,28.14
2023-04-28T12:04:37.808Z,28.90
2023-04-28T12:07:15.753Z,28.80
2023-04-28T12:09:48.123Z,27.95
2023-04-28T12:12:40.073Z,27.44
2023-04-28T12:15:14.102Z,28.19
2023-04-28T12:17:42.259Z,28.30
2023-04-28T12:20:11.691Z,27.25
2023-04-28T12:22:46.796Z,27.94
2023-04-28T12:25:16.456Z,27.89
2023-04-28T12:28:02.713Z,28.54
2023-04-28T12:30:31.879Z,28.39
2023-04-28T12:32:58.415Z,28.62
2023-04-28T12:35:26.243Z,27.83
2023-04-28T12:37:53.702Z,27.54
2023-04-28T12:40:20.105Z,28.78
2023-04-28T12:42:46.647Z,28.92
2023-04-28T12:45:13.154Z,28.39
2023-04-28T12:47:39.758Z,29.22
2023-04-28T12:50:06.776Z,28.02
2023-04-28T12:52:34.642Z,28.80
2023-04-28T12:55:01.235Z,29.39
2023-04-28T12:57:28.797Z,29.17
2023-04-28T12:59:56.656Z,29.33
2023-04-28T13:02:23.688Z,28.48
2023-04-28T13:04:51.864Z,29.13
2023-04-28T13:07:18.572Z,27.95
2023-04-28T13:09:45.563Z,27.92
2023-04-28T13:12:12.439Z,29.35
2023-04-28T13:14:39.392Z,29.32
2023-04-28T13:17:05.924Z,28.00
2023-04-28T13:19:34.469Z,28.41
2023-04-28T13:22:03.055Z,29.20
2023-04-28T13:24:29.848Z,28.11
2023-04-28T13:26:56.238Z,28.78
2023-04-28T13:29:22.599Z,29.69
2023-04-28T13:31:48.999Z,28.66
2023-04-28T13:34:18.904Z,28.44
2023-04-28T13:36:45.567Z,28.17
2023-04-28T13:39:14.123Z,29.18
2023-04-28T13:41:40.529Z,29.25
2023-04-28T13:44:08.466Z,29.98
2023-04-28T13:46:34.881Z,29.35
2023-04-28T13:49:01.639Z,30.21
2023-04-28T13:51:28.724Z,30.03
2023-04-28T13:53:55.117Z,29.49
2023-04-28T13:56:21.571Z,30.58
2023-04-28T13:58:47.994Z,30.89
2023-04-28T14:01:14.627Z,31.61
2023-04-28T14:03:41.453Z,30.73
2023-04-28T14:06:08.294Z,33.46
2023-04-28T14:08:34.766Z,33.28
2023-04-28T14:11:01.336Z,33.18
2023-04-28T14:13:27.779Z,33.46
2023-04-28T14:15:59.691Z,34.44
2023-04-28T14:18:27.070Z,33.19
2023-04-28T14:20:54.598Z,33.66
2023-04-28T14:23:22.585Z,33.46
2023-04-28T14:25:49.183Z,33.28
2023-04-28T14:28:16.187Z,34.71
2023-04-28T14:30:42.668Z,35.22
2023-04-28T14:33:09.114Z,35.16
2023-04-28T14:35:35.739Z,35.10
2023-04-28T14:38:03.616Z,36.51
2023-04-28T14:40:30.079Z,35.05
2023-04-28T14:42:56.490Z,35.77
2023-04-28T14:45:22.922Z,34.90
2023-04-28T14:47:49.704Z,35.09
2023-04-28T14:50:16.780Z,35.48
2023-04-28T14:52:43.195Z,36.22
2023-04-28T14:55:10.167Z,36.76
2023-04-28T14:57:37.682Z,38.34
2023-04-28T15:00:04.931Z,37.87
2023-04-28T15:02:31.488Z,37.53
2023-04-28T15:04:58.498Z,36.92
2023-04-28T15:07:30.984Z,36.96
2023-04-28T15:09:59.356Z,38.10
2023-04-28T15:12:26.007Z,39.26
2023-04-28T15:14:53.689Z,36.96
2023-04-28T15:17:21.170Z,37.52
2023-04-28T15:19:47.712Z,36.83
2023-04-28T15:22:14.149Z,36.85
2023-04-28T15:24:40.588Z,37.52
2023-04-28T15:27:06.990Z,37.84
2023-04-28T15:29:33.424Z,37.86
2023-04-28T15:31:59.984Z,38.34
2023-04-28T15:34:26.523Z,38.92
2023-04-28T15:36:53.805Z,39.62
2023-04-28T15:39:20.408Z,40.24
2023-04-28T15:41:47.193Z,40.70
2023-04-28T15:44:13.721Z,40.94
2023-04-28T15:46:40.356Z,41.46
2023-04-28T15:49:06.750Z,40.73
2023-04-28T15:51:33.329Z,42.44
2023-04-28T15:54:00.293Z,43.88
2023-04-28T15:56:26.701Z,43.34
2023-04-28T15:58:53.342Z,44.56
2023-04-28T16:01:21.009Z,44.88
2023-04-28T16:03:48.357Z,45.02
2023-04-28T16:06:14.958Z,45.59
2023-04-28T16:08:41.320Z,44.20
2023-04-28T16:11:10.223Z,44.09
2023-04-28T16:13:37.170Z,47.01
2023-04-28T16:16:04.275Z,46.21
2023-04-28T16:18:30.830Z,44.44
2023-04-28T16:20:57.521Z,45.13
2023-04-28T16:23:23.923Z,45.03
2023-04-28T16:25:51.044Z,44.34
2023-04-28T16:28:17.678Z,46.26
2023-04-28T16:30:44.072Z,45.97
2023-04-28T16:33:10.675Z,45.08
2023-04-28T16:35:37.214Z,46.14
2023-04-28T16:38:03.877Z,47.65
2023-04-28T16:40:30.612Z,47.39
2023-04-28T16:42:57.388Z,49.43
2023-04-28T16:45:23.871Z,49.37
2023-04-28T16:47:50.326Z,49.54
2023-04-28T16:50:17.312Z,51.55
2023-04-28T16:52:43.677Z,51.45
2023-04-28T16:55:10.826Z,49.92
2023-04-28T16:57:37.497Z,51.25
2023-04-28T17:00:06.153Z,50.82
2023-04-28T17:02:33.446Z,50.31
2023-04-28T17:05:00.351Z,54.11
2023-04-28T17:07:26.778Z,50.71
2023-04-28T17:09:53.342Z,51.56
2023-04-28T17:12:20.964Z,52.57
2023-04-28T17:14:47.528Z,52.23
2023-04-28T17:17:13.930Z,54.66
2023-04-28T17:19:41.613Z,53.95
2023-04-28T17:22:08.311Z,52.52
2023-04-28T17:24:34.855Z,53.66
2023-04-28T17:27:01.249Z,56.38
2023-04-28T17:29:27.758Z,55.63
2023-04-28T17:31:54.493Z,55.25
2023-04-28T17:34:21.005Z,57.97
2023-04-28T17:36:47.396Z,58.17
2023-04-28T17:39:16.123Z,58.46
2023-04-28T17:41:43.048Z,58.99
2023-04-28T17:44:09.420Z,62.41
2023-04-28T17:46:36.522Z,59.66
2023-04-28T17:49:02.931Z,63.15
2023-04-28T17:51:29.428Z,61.17
2023-04-28T17:53:58.738Z,61.20
2023-04-28T17:56:25.116Z,63.17
2023-04-28T17:58:51.708Z,63.20
2023-04-28T18:01:18.229Z,61.05
2023-04-28T18:03:44.652Z,63.63
2023-04-28T18:06:11.377Z,62.78
2023-04-28T18:08:38.396Z,63.46
2023-04-28T18:11:05.094Z,62.64
2023-04-28T18:13:32.986Z,62.11
2023-04-28T18:16:00.474Z,62.90
2023-04-28T18:18:29.801Z,61.76
2023-04-28T18:20:58.727Z,62.67
2023-04-28T18:23:26.520Z,63.83
2023-04-28T18:25:52.909Z,65.19
2023-04-28T18:28:19.318Z,61.85
2023-04-28T18:30:45.644Z,64.03
2023-04-28T18:33:12.120Z,64.21
2023-04-28T18:35:38.637Z,61.67
2023-04-28T18:38:06.023Z,63.37
2023-04-28T18:40:34.092Z,64.25
2023-04-28T18:43:01.968Z,64.98
2023-04-28T18:45:34.348Z,64.62
2023-04-28T18:48:02.303Z,63.47
2023-04-28T18:50:29.580Z,62.17
2023-04-28T18:52:56.437Z,64.40
2023-04-28T18:55:22.945Z,61.89
2023-04-28T18:57:49.847Z,64.05
2023-04-28T19:00:16.449Z,62.95
2023-04-28T19:02:44.505Z,61.78
2023-04-28T19:05:14.519Z,60.64
2023-04-28T19:07:42.031Z,63.86
2023-04-28T19:10:08.880Z,64.64
2023-04-28T19:12:35.328Z,64.18
2023-04-28T19:15:02.079Z,63.61
2023-04-28T19:17:28.652Z,63.11
2023-04-28T19:19:56.255Z,64.79
2023-04-28T19:22:34.977Z,63.11
2023-04-28T19:25:02.092Z,64.80
2023-04-28T19:27:32.884Z,63.85
2023-04-28T19:30:00.129Z,63.89
2023-04-28T19:32:27.127Z,64.44
2023-04-28T19:34:53.525Z,64.46
2023-04-28T19:37:20.281Z,64.15
2023-04-28T19:39:47.584Z,64.28
2023-04-28T19:42:14.107Z,63.27
2023-04-28T19:44:40.481Z,62.21
2023-04-28T19:47:07.441Z,63.92
2023-04-28T19:49:34.556Z,63.76
2023-04-28T19:52:01.223Z,62.22
2023-04-28T19:54:27.698Z,63.16
2023-04-28T19:56:54.350Z,63.85
2023-04-28T19:59:20.814Z,63.06
2023-04-28T20:01:47.250Z,61.92
2023-04-28T20:04:13.843Z,63.51
2023-04-28T20:06:40.878Z,61.72
2023-04-28T20:09:09.003Z,62.91
2023-04-28T20:11:35.575Z,61.93
2023-04-28T20:14:02.001Z,62.08
2023-04-28T20:16:28.592Z,61.90
2023-04-28T20:18:55.028Z,62.29
2023-04-28T20:21:21.409Z,62.49
2023-04-28T20:23:47.840Z,62.30
2023-04-28T20:26:15.441Z,62.44
2023-04-28T20:28:45.073Z,61.65
2023-04-28T20:31:11.543Z,61.28
2023-04-28T20:33:37.968Z,62.72
2023-04-28T20:36:05.524Z,61.87
2023-04-28T20:38:31.905Z,61.17
2023-04-28T20:40:59.227Z,61.86
2023-04-28T20:43:29.126Z,60.95
2023-04-28T20:45:55.709Z,62.41
2023-04-28T20:48:22.102Z,61.55
2023-04-28T20:50:52.627Z,62.06
2023-04-28T20:53:19.017Z,62.81
2023-04-28T20:55:45.637Z,63.51
2023-04-28T20:58:12.009Z,62.70
2023-04-28T21:00:40.487Z,62.70
2023-04-28T21:03:07.347Z,63.58
2023-04-28T21:05:33.908Z,63.47
2023-04-28T21:08:00.304Z,62.95
2023-04-28T21:10:27.838Z,64.07
2023-04-28T21:12:54.239Z,63.60
2023-04-28T21:15:20.693Z,63.04
2023-04-28T21:17:47.153Z,63.37
2023-04-28T21:20:14.691Z,63.23
2023-04-28T21:22:41.289Z,63.70
2023-04-28T21:25:08.646Z,62.27
2023-04-28T21:27:35.092Z,62.63
2023-04-28T21:32:28.198Z,61.72
2023-04-28T21:34:54.590Z,62.67
2023-04-28T21:37:20.977Z,63.27
2023-04-28T21:39:47.345Z,62.56
2023-04-28T21:42:13.758Z,62.52
2023-04-28T21:44:40.315Z,62.55
2023-04-28T21:47:06.892Z,63.34
2023-04-28T21:49:33.256Z,62.57
2023-04-28T21:51:59.623Z,63.09
2023-04-28T21:54:25.996Z,62.96
2023-04-28T21:56:52.556Z,62.80
2023-04-28T21:59:18.968Z,63.83
2023-04-28T22:01:45.528Z,62.66
2023-04-28T22:04:12.152Z,62.33
2023-04-28T22:06:39.060Z,62.90
2023-04-28T22:09:05.439Z,63.39
2023-04-28T22:11:32.218Z,63.43
2023-04-28T22:13:58.583Z,63.90
2023-04-28T22:16:24.999Z,63.94
2023-04-28T22:18:51.391Z,63.37
2023-04-28T22:21:19.023Z,63.48
2023-04-28T22:23:45.435Z,63.69
2023-04-28T22:26:11.809Z,63.09
2023-04-28T22:28:38.197Z,63.50
2023-04-28T22:31:04.602Z,63.62
2023-04-28T22:33:31.126Z,62.77
2023-04-28T22:35:57.590Z,63.03
2023-04-28T22:38:23.982Z,63.41
2023-04-28T22:40:50.330Z,63.86
2023-04-28T22:43:16.715Z,63.53
2023-04-28T22:45:45.852Z,63.43
2023-04-28T22:48:13.641Z,63.39
2023-04-28T22:50:40.526Z,63.27
2023-04-28T22:53:06.905Z,63.44
2023-04-28T22:55:33.264Z,62.27
2023-04-28T22:57:59.647Z,62.67
2023-04-28T23:00:26.010Z,63.10
2023-04-28T23:02:52.427Z,62.59
2023-04-28T23:05:18.887Z,62.85
2023-04-28T23:07:45.258Z,62.20
2023-04-28T23:10:14.264Z,62.65
2023-04-28T23:12:41.002Z,61.99
2023-04-28T23:15:07.661Z,62.91
2023-04-28T23:17:34.042Z,62.26
2023-04-28T23:20:00.477Z,63.92
2023-04-28T23:22:26.860Z,63.06
2023-04-28T23:24:53.249Z,64.01
2023-04-28T23:27:19.657Z,63.78
2023-04-28T23:29:46.011Z,63.48
2023-04-28T23:32:12.710Z,64.24
2023-04-28T23:34:41.676Z,63.90
2023-04-28T23:37:08.155Z,62.83
2023-04-28T23:39:34.535Z,63.56
2023-04-28T23:42:02.277Z,62.99
2023-04-28T23:44:28.678Z,63.08
2023-04-28T23:46:56.221Z,63.01
2023-04-28T23:49:23.067Z,63.44
2023-04-28T23:51:49.495Z,63.75
2023-04-28T23:54:15.849Z,62.58
2023-04-28T23:56:42.208Z,62.99
